CSC6131 ZUNC-ZGDY
Flight info
| Callsign | CSC6131 |
|---|---|
| Flight time | 0h 56m |
| Altitude | 35100 |
| Route | TOREG UBRAB B213 KIGUM W240 ENH W139 DYG |
| Aircraft | A320/M-SDE3FGHIRWY/LB1 |
Departure
| Time | 2026-05-05 09:20 |
|---|---|
| Airport | Nanchong Gaoping Airport (ZUNC) |
Arrival
| Time | 2026-05-05 10:16 |
|---|---|
| Airport | Zhangjiajie Hehua International Airport (ZGDY) |
| Time | Latitude | Longitude | Altitude | Speed | Heading |
|---|---|---|---|---|---|
| 2026-05-05 08:44 | 30.79042 | 106.15955 | 1154 ft | 0 kts | 148° |
| 2026-05-05 09:09 | 30.79043 | 106.15954 | 1157 ft | 0 kts | 149° |
| 2026-05-05 09:09 | 30.79054 | 106.15947 | 1154 ft | 3 kts | 148° |
| 2026-05-05 09:09 | 30.79071 | 106.15934 | 1154 ft | 3 kts | 144° |
| 2026-05-05 09:09 | 30.79086 | 106.15919 | 1154 ft | 3 kts | 129° |
| 2026-05-05 09:10 | 30.79095 | 106.15902 | 1152 ft | 3 kts | 86° |
| 2026-05-05 09:10 | 30.79094 | 106.15892 | 1153 ft | 0 kts | 56° |
| 2026-05-05 09:12 | 30.79100 | 106.15903 | 1153 ft | 4 kts | 56° |
| 2026-05-05 09:12 | 30.79123 | 106.15943 | 1153 ft | 9 kts | 57° |
| 2026-05-05 09:12 | 30.79156 | 106.16006 | 1154 ft | 8 kts | 59° |
| 2026-05-05 09:13 | 30.79174 | 106.16043 | 1154 ft | 7 kts | 59° |
| 2026-05-05 09:13 | 30.79220 | 106.16064 | 1154 ft | 5 kts | 340° |
| 2026-05-05 09:13 | 30.79243 | 106.16049 | 1153 ft | 6 kts | 329° |
| 2026-05-05 09:13 | 30.79273 | 106.16028 | 1154 ft | 3 kts | 328° |
| 2026-05-05 09:14 | 30.79294 | 106.16012 | 1156 ft | 6 kts | 328° |
| 2026-05-05 09:14 | 30.79356 | 106.15970 | 1154 ft | 6 kts | 328° |
| 2026-05-05 09:14 | 30.79370 | 106.15947 | 1153 ft | 5 kts | 289° |
| 2026-05-05 09:14 | 30.79356 | 106.15900 | 1155 ft | 8 kts | 238° |
| 2026-05-05 09:15 | 30.79321 | 106.15835 | 1156 ft | 11 kts | 238° |
| 2026-05-05 09:15 | 30.79263 | 106.15725 | 1160 ft | 21 kts | 239° |
| 2026-05-05 09:15 | 30.79176 | 106.15559 | 1163 ft | 25 kts | 238° |
| 2026-05-05 09:15 | 30.79092 | 106.15401 | 1166 ft | 17 kts | 239° |
| 2026-05-05 09:16 | 30.79054 | 106.15325 | 1170 ft | 6 kts | 248° |
| 2026-05-05 09:16 | 30.79060 | 106.15289 | 1170 ft | 3 kts | 301° |
| 2026-05-05 09:16 | 30.79072 | 106.15276 | 1170 ft | 1 kts | 322° |
| 2026-05-05 09:16 | 30.79075 | 106.15273 | 1169 ft | 0 kts | 323° |
| 2026-05-05 09:17 | 30.79076 | 106.15272 | 1169 ft | 1 kts | 324° |
| 2026-05-05 09:17 | 30.79111 | 106.15243 | 1171 ft | 11 kts | 324° |
| 2026-05-05 09:18 | 30.79172 | 106.15221 | 1168 ft | 9 kts | 22° |
| 2026-05-05 09:18 | 30.79192 | 106.15249 | 1168 ft | 0 kts | 58° |
| 2026-05-05 09:19 | 30.79219 | 106.15299 | 1165 ft | 35 kts | 58° |
| 2026-05-05 09:19 | 30.79483 | 106.15806 | 1155 ft | 108 kts | 58° |
| 2026-05-05 09:19 | 30.79981 | 106.16750 | 1134 ft | 163 kts | 57° |
| 2026-05-05 09:19 | 30.80611 | 106.17865 | 1742 ft | 160 kts | 62° |
| 2026-05-05 09:20 | 30.81279 | 106.18903 | 2397 ft | 166 kts | 47° |
| 2026-05-05 09:20 | 30.82441 | 106.19444 | 2525 ft | 200 kts | 360° |
| 2026-05-05 09:20 | 30.83900 | 106.19176 | 2762 ft | 225 kts | 347° |
| 2026-05-05 09:20 | 30.85503 | 106.18677 | 3056 ft | 251 kts | 345° |
| 2026-05-05 09:21 | 30.87262 | 106.18097 | 3487 ft | 273 kts | 344° |
| 2026-05-05 09:21 | 30.89124 | 106.17505 | 4221 ft | 281 kts | 345° |
| 2026-05-05 09:21 | 30.91038 | 106.16933 | 5023 ft | 287 kts | 346° |
| 2026-05-05 09:21 | 30.93000 | 106.16384 | 5846 ft | 292 kts | 346° |
| 2026-05-05 09:22 | 30.94990 | 106.15850 | 6695 ft | 295 kts | 346° |
| 2026-05-05 09:22 | 30.97007 | 106.15318 | 7508 ft | 299 kts | 346° |
| 2026-05-05 09:22 | 30.99051 | 106.14783 | 8329 ft | 302 kts | 345° |
| 2026-05-05 09:22 | 31.01119 | 106.14269 | 9124 ft | 306 kts | 346° |
| 2026-05-05 09:23 | 31.03229 | 106.13784 | 9890 ft | 311 kts | 346° |
| 2026-05-05 09:23 | 31.05401 | 106.13301 | 10311 ft | 329 kts | 346° |
| 2026-05-05 09:23 | 31.07723 | 106.12766 | 10519 ft | 351 kts | 343° |
| 2026-05-05 09:23 | 31.09974 | 106.11647 | 10743 ft | 363 kts | 322° |
| 2026-05-05 09:24 | 31.11780 | 106.09605 | 11289 ft | 363 kts | 302° |
| 2026-05-05 09:24 | 31.12840 | 106.06960 | 11923 ft | 361 kts | 281° |
| 2026-05-05 09:24 | 31.13010 | 106.04061 | 12563 ft | 360 kts | 261° |
| 2026-05-05 09:24 | 31.12294 | 106.01267 | 13198 ft | 361 kts | 242° |
| 2026-05-05 09:25 | 31.10829 | 105.98897 | 13778 ft | 364 kts | 224° |
| 2026-05-05 09:25 | 31.08750 | 105.97200 | 14335 ft | 369 kts | 205° |
| 2026-05-05 09:25 | 31.06263 | 105.96399 | 14855 ft | 376 kts | 186° |
| 2026-05-05 09:25 | 31.03641 | 105.96641 | 15342 ft | 385 kts | 166° |
| 2026-05-05 09:26 | 31.01167 | 105.97916 | 15831 ft | 394 kts | 151° |
| 2026-05-05 09:26 | 30.98953 | 105.99851 | 16335 ft | 401 kts | 137° |
| 2026-05-05 09:26 | 30.97123 | 106.02345 | 16835 ft | 408 kts | 124° |
| 2026-05-05 09:26 | 30.95796 | 106.05285 | 17332 ft | 414 kts | 111° |
| 2026-05-05 09:27 | 30.94959 | 106.08516 | 17836 ft | 419 kts | 105° |
| 2026-05-05 09:27 | 30.94186 | 106.11796 | 18303 ft | 423 kts | 105° |
| 2026-05-05 09:27 | 30.93404 | 106.15119 | 18760 ft | 426 kts | 105° |
| 2026-05-05 09:27 | 30.92618 | 106.18461 | 19220 ft | 430 kts | 105° |
| 2026-05-05 09:28 | 30.91823 | 106.21826 | 19671 ft | 433 kts | 105° |
| 2026-05-05 09:28 | 30.91018 | 106.25217 | 20124 ft | 436 kts | 105° |
| 2026-05-05 09:28 | 30.90204 | 106.28632 | 20577 ft | 440 kts | 105° |
| 2026-05-05 09:28 | 30.89380 | 106.32078 | 21002 ft | 443 kts | 105° |
| 2026-05-05 09:29 | 30.88556 | 106.35498 | 21422 ft | 446 kts | 107° |
| 2026-05-05 09:29 | 30.87398 | 106.38913 | 21841 ft | 450 kts | 116° |
| 2026-05-05 09:29 | 30.85768 | 106.42035 | 22250 ft | 453 kts | 127° |
| 2026-05-05 09:29 | 30.83698 | 106.44800 | 22638 ft | 455 kts | 137° |
| 2026-05-05 09:30 | 30.81371 | 106.47321 | 23037 ft | 458 kts | 138° |
| 2026-05-05 09:30 | 30.79029 | 106.49857 | 23403 ft | 462 kts | 138° |
| 2026-05-05 09:30 | 30.76677 | 106.52412 | 23723 ft | 464 kts | 138° |
| 2026-05-05 09:30 | 30.74307 | 106.54988 | 24044 ft | 467 kts | 137° |
| 2026-05-05 09:31 | 30.71959 | 106.57540 | 24351 ft | 469 kts | 137° |
| 2026-05-05 09:31 | 30.69574 | 106.60132 | 24659 ft | 471 kts | 137° |
| 2026-05-05 09:31 | 30.67171 | 106.62738 | 24967 ft | 474 kts | 137° |
| 2026-05-05 09:31 | 30.64754 | 106.65351 | 25277 ft | 476 kts | 138° |
| 2026-05-05 09:32 | 30.62316 | 106.67978 | 25582 ft | 478 kts | 138° |
| 2026-05-05 09:32 | 30.59883 | 106.70596 | 25882 ft | 481 kts | 137° |
| 2026-05-05 09:32 | 30.57424 | 106.73245 | 26139 ft | 484 kts | 137° |
| 2026-05-05 09:32 | 30.54951 | 106.75915 | 26415 ft | 487 kts | 137° |
| 2026-05-05 09:33 | 30.52468 | 106.78599 | 26708 ft | 489 kts | 137° |
| 2026-05-05 09:33 | 30.49975 | 106.81294 | 26986 ft | 492 kts | 137° |
| 2026-05-05 09:33 | 30.47462 | 106.84010 | 27257 ft | 494 kts | 137° |
| 2026-05-05 09:33 | 30.44947 | 106.86725 | 27528 ft | 496 kts | 137° |
| 2026-05-05 09:34 | 30.42414 | 106.89451 | 27789 ft | 498 kts | 137° |
| 2026-05-05 09:34 | 30.39868 | 106.92188 | 28036 ft | 500 kts | 137° |
| 2026-05-05 09:34 | 30.37303 | 106.94939 | 28275 ft | 502 kts | 137° |
| 2026-05-05 09:34 | 30.34734 | 106.97693 | 28509 ft | 505 kts | 137° |
| 2026-05-05 09:35 | 30.32129 | 107.00435 | 28753 ft | 506 kts | 138° |
| 2026-05-05 09:35 | 30.26846 | 107.05839 | 29348 ft | 507 kts | 139° |
| 2026-05-05 09:35 | 30.24189 | 107.08531 | 29619 ft | 508 kts | 139° |
| 2026-05-05 09:36 | 30.21534 | 107.11228 | 29907 ft | 508 kts | 139° |
| 2026-05-05 09:36 | 30.18886 | 107.13933 | 30187 ft | 508 kts | 139° |
| 2026-05-05 09:36 | 30.16246 | 107.16644 | 30466 ft | 508 kts | 138° |
| 2026-05-05 09:36 | 30.13612 | 107.19357 | 30718 ft | 508 kts | 138° |
| 2026-05-05 09:37 | 30.11008 | 107.22134 | 30986 ft | 508 kts | 136° |
| 2026-05-05 09:37 | 30.08471 | 107.24963 | 31259 ft | 508 kts | 135° |
| 2026-05-05 09:37 | 30.05964 | 107.27834 | 31535 ft | 507 kts | 135° |
| 2026-05-05 09:37 | 30.03468 | 107.30716 | 31813 ft | 507 kts | 135° |
| 2026-05-05 09:38 | 30.01062 | 107.33702 | 32086 ft | 507 kts | 128° |
| 2026-05-05 09:38 | 29.99066 | 107.36972 | 32341 ft | 505 kts | 119° |
| 2026-05-05 09:38 | 29.97467 | 107.40566 | 32628 ft | 503 kts | 110° |
| 2026-05-05 09:38 | 29.96313 | 107.44364 | 32901 ft | 500 kts | 104° |
| 2026-05-05 09:39 | 29.95303 | 107.48201 | 33171 ft | 500 kts | 104° |
| 2026-05-05 09:39 | 29.94299 | 107.52038 | 33455 ft | 500 kts | 103° |
| 2026-05-05 09:39 | 29.93295 | 107.55874 | 33749 ft | 499 kts | 103° |
| 2026-05-05 09:39 | 29.92291 | 107.59707 | 33998 ft | 499 kts | 103° |
| 2026-05-05 09:40 | 29.91340 | 107.63553 | 34243 ft | 497 kts | 98° |
| 2026-05-05 09:40 | 29.90832 | 107.67468 | 34458 ft | 492 kts | 89° |
| 2026-05-05 09:40 | 29.90851 | 107.71383 | 34667 ft | 486 kts | 79° |
| 2026-05-05 09:40 | 29.91375 | 107.75202 | 34859 ft | 480 kts | 70° |
| 2026-05-05 09:41 | 29.93242 | 107.82580 | 34893 ft | 480 kts | 68° |
| 2026-05-05 09:41 | 29.95125 | 107.89970 | 34900 ft | 480 kts | 68° |
| 2026-05-05 09:42 | 29.96983 | 107.97372 | 34898 ft | 481 kts | 68° |
| 2026-05-05 09:42 | 29.98837 | 108.04781 | 34917 ft | 481 kts | 68° |
| 2026-05-05 09:43 | 30.00684 | 108.12146 | 34918 ft | 481 kts | 68° |
| 2026-05-05 09:43 | 30.02547 | 108.19570 | 34928 ft | 481 kts | 68° |
| 2026-05-05 09:44 | 30.04414 | 108.26989 | 34927 ft | 481 kts | 68° |
| 2026-05-05 09:44 | 30.06274 | 108.34418 | 34936 ft | 482 kts | 68° |
| 2026-05-05 09:45 | 30.08120 | 108.41861 | 34937 ft | 482 kts | 68° |
| 2026-05-05 09:45 | 30.09961 | 108.49298 | 34955 ft | 481 kts | 68° |
| 2026-05-05 09:46 | 30.11814 | 108.56734 | 34953 ft | 481 kts | 67° |
| 2026-05-05 09:46 | 30.13858 | 108.64074 | 34962 ft | 479 kts | 65° |
| 2026-05-05 09:47 | 30.16057 | 108.71329 | 34968 ft | 478 kts | 64° |
| 2026-05-05 09:47 | 30.18234 | 108.78590 | 34973 ft | 478 kts | 65° |
| 2026-05-05 09:48 | 30.20351 | 108.85879 | 34966 ft | 478 kts | 65° |
| 2026-05-05 09:48 | 30.22294 | 108.93245 | 34957 ft | 484 kts | 73° |
| 2026-05-05 09:49 | 30.23157 | 109.00970 | 34961 ft | 488 kts | 77° |
| 2026-05-05 09:49 | 30.23963 | 109.08768 | 34955 ft | 488 kts | 77° |
| 2026-05-05 09:50 | 30.24773 | 109.16559 | 34965 ft | 488 kts | 77° |
| 2026-05-05 09:50 | 30.25575 | 109.24346 | 34959 ft | 488 kts | 77° |
| 2026-05-05 09:51 | 30.26372 | 109.32154 | 34947 ft | 488 kts | 77° |
| 2026-05-05 09:51 | 30.27160 | 109.39953 | 34943 ft | 488 kts | 77° |
| 2026-05-05 09:52 | 30.27932 | 109.47745 | 34952 ft | 488 kts | 78° |
| 2026-05-05 09:52 | 30.27968 | 109.51699 | 34947 ft | 497 kts | 91° |
| 2026-05-05 09:52 | 30.27310 | 109.55600 | 34944 ft | 504 kts | 104° |
| 2026-05-05 09:53 | 30.25925 | 109.59348 | 34939 ft | 510 kts | 117° |
| 2026-05-05 09:53 | 30.23865 | 109.62688 | 34932 ft | 513 kts | 131° |
| 2026-05-05 09:53 | 30.21215 | 109.65454 | 34913 ft | 513 kts | 146° |
| 2026-05-05 09:53 | 30.18184 | 109.67626 | 34922 ft | 513 kts | 150° |
| 2026-05-05 09:54 | 30.12007 | 109.71808 | 34928 ft | 515 kts | 150° |
| 2026-05-05 09:54 | 30.05809 | 109.75984 | 34942 ft | 516 kts | 150° |
| 2026-05-05 09:55 | 29.99609 | 109.80160 | 34765 ft | 517 kts | 150° |
| 2026-05-05 09:55 | 29.96499 | 109.82259 | 34511 ft | 518 kts | 150° |
| 2026-05-05 09:55 | 29.93393 | 109.84356 | 34281 ft | 518 kts | 150° |
| 2026-05-05 09:56 | 29.90286 | 109.86451 | 34053 ft | 517 kts | 150° |
| 2026-05-05 09:56 | 29.87184 | 109.88541 | 33820 ft | 516 kts | 150° |
| 2026-05-05 09:56 | 29.84084 | 109.90627 | 33492 ft | 516 kts | 150° |
| 2026-05-05 09:56 | 29.80971 | 109.92719 | 32265 ft | 523 kts | 150° |
| 2026-05-05 09:57 | 29.77804 | 109.94845 | 31087 ft | 529 kts | 150° |
| 2026-05-05 09:57 | 29.74625 | 109.96974 | 29839 ft | 526 kts | 150° |
| 2026-05-05 09:57 | 29.71491 | 109.99070 | 28480 ft | 517 kts | 150° |
| 2026-05-05 09:57 | 29.68403 | 110.01136 | 27191 ft | 509 kts | 150° |
| 2026-05-05 09:58 | 29.65366 | 110.03174 | 26174 ft | 498 kts | 150° |
| 2026-05-05 09:58 | 29.62428 | 110.05147 | 25406 ft | 482 kts | 150° |
| 2026-05-05 09:58 | 29.59558 | 110.07071 | 24570 ft | 474 kts | 150° |
| 2026-05-05 09:58 | 29.56710 | 110.08975 | 23778 ft | 474 kts | 151° |
| 2026-05-05 09:59 | 29.53852 | 110.10880 | 22915 ft | 476 kts | 151° |
| 2026-05-05 09:59 | 29.50995 | 110.12782 | 22154 ft | 474 kts | 150° |
| 2026-05-05 09:59 | 29.48146 | 110.14679 | 21442 ft | 472 kts | 150° |
| 2026-05-05 09:59 | 29.45322 | 110.16567 | 20782 ft | 468 kts | 149° |
| 2026-05-05 10:00 | 29.42524 | 110.18447 | 20150 ft | 464 kts | 149° |
| 2026-05-05 10:00 | 29.39753 | 110.20314 | 19527 ft | 460 kts | 149° |
| 2026-05-05 10:00 | 29.37934 | 110.21538 | 19067 ft | 458 kts | 149° |
| 2026-05-05 10:00 | 29.35206 | 110.23365 | 18378 ft | 446 kts | 149° |
| 2026-05-05 10:01 | 29.32575 | 110.25114 | 17680 ft | 429 kts | 149° |
| 2026-05-05 10:01 | 29.30038 | 110.26793 | 17061 ft | 412 kts | 149° |
| 2026-05-05 10:01 | 29.27627 | 110.28384 | 16739 ft | 389 kts | 149° |
| 2026-05-05 10:01 | 29.25348 | 110.29889 | 16623 ft | 372 kts | 149° |
| 2026-05-05 10:02 | 29.23137 | 110.31351 | 16429 ft | 363 kts | 149° |
| 2026-05-05 10:02 | 29.20280 | 110.33246 | 16179 ft | 352 kts | 149° |
| 2026-05-05 10:02 | 29.18857 | 110.34174 | 16057 ft | 347 kts | 152° |
| 2026-05-05 10:02 | 29.16623 | 110.34927 | 15875 ft | 326 kts | 181° |
| 2026-05-05 10:03 | 29.14497 | 110.34456 | 15709 ft | 301 kts | 210° |
| 2026-05-05 10:03 | 29.12900 | 110.33080 | 15456 ft | 281 kts | 234° |
| 2026-05-05 10:03 | 29.11999 | 110.31160 | 14989 ft | 270 kts | 259° |
| 2026-05-05 10:03 | 29.11858 | 110.29081 | 14576 ft | 260 kts | 281° |
| 2026-05-05 10:04 | 29.12257 | 110.27091 | 14187 ft | 257 kts | 286° |
| 2026-05-05 10:04 | 29.12696 | 110.25108 | 13786 ft | 263 kts | 285° |
| 2026-05-05 10:04 | 29.13142 | 110.23061 | 13346 ft | 268 kts | 285° |
| 2026-05-05 10:04 | 29.13594 | 110.20977 | 12904 ft | 270 kts | 285° |
| 2026-05-05 10:05 | 29.14040 | 110.18919 | 12492 ft | 264 kts | 284° |
| 2026-05-05 10:05 | 29.14473 | 110.16911 | 12089 ft | 257 kts | 284° |
| 2026-05-05 10:05 | 29.14896 | 110.14950 | 11696 ft | 251 kts | 284° |
| 2026-05-05 10:05 | 29.15309 | 110.13034 | 11316 ft | 245 kts | 284° |
| 2026-05-05 10:06 | 29.15714 | 110.11167 | 10942 ft | 239 kts | 284° |
| 2026-05-05 10:06 | 29.16111 | 110.09346 | 10579 ft | 233 kts | 284° |
| 2026-05-05 10:06 | 29.16497 | 110.07545 | 10226 ft | 235 kts | 281° |
| 2026-05-05 10:06 | 29.16375 | 110.05713 | 9936 ft | 233 kts | 244° |
| 2026-05-05 10:07 | 29.15269 | 110.04417 | 9697 ft | 232 kts | 207° |
| 2026-05-05 10:07 | 29.13697 | 110.04018 | 9411 ft | 233 kts | 187° |
| 2026-05-05 10:07 | 29.12091 | 110.03897 | 9110 ft | 231 kts | 185° |
| 2026-05-05 10:07 | 29.10479 | 110.03812 | 8810 ft | 233 kts | 183° |
| 2026-05-05 10:08 | 29.08852 | 110.03799 | 8490 ft | 234 kts | 181° |
| 2026-05-05 10:08 | 29.07223 | 110.03872 | 8183 ft | 234 kts | 178° |
| 2026-05-05 10:08 | 29.05602 | 110.04040 | 7873 ft | 233 kts | 175° |
| 2026-05-05 10:08 | 29.04001 | 110.04323 | 7576 ft | 233 kts | 165° |
| 2026-05-05 10:09 | 29.02666 | 110.05272 | 7304 ft | 228 kts | 131° |
| 2026-05-05 10:09 | 29.02065 | 110.06890 | 7069 ft | 221 kts | 94° |
| 2026-05-05 10:09 | 29.02269 | 110.08594 | 6919 ft | 214 kts | 79° |
| 2026-05-05 10:09 | 29.02626 | 110.10221 | 6632 ft | 208 kts | 77° |
| 2026-05-05 10:10 | 29.02987 | 110.11803 | 6368 ft | 204 kts | 78° |
| 2026-05-05 10:10 | 29.03340 | 110.13363 | 6099 ft | 202 kts | 79° |
| 2026-05-05 10:10 | 29.03690 | 110.14915 | 5805 ft | 202 kts | 78° |
| 2026-05-05 10:10 | 29.04038 | 110.16455 | 5531 ft | 200 kts | 79° |
| 2026-05-05 10:11 | 29.04382 | 110.17983 | 5251 ft | 195 kts | 78° |
| 2026-05-05 10:11 | 29.04713 | 110.19448 | 5012 ft | 185 kts | 78° |
| 2026-05-05 10:11 | 29.05025 | 110.20834 | 4754 ft | 176 kts | 79° |
| 2026-05-05 10:11 | 29.05324 | 110.22165 | 4508 ft | 170 kts | 80° |
| 2026-05-05 10:12 | 29.05614 | 110.23450 | 4267 ft | 164 kts | 79° |
| 2026-05-05 10:12 | 29.05891 | 110.24681 | 4060 ft | 158 kts | 80° |
| 2026-05-05 10:12 | 29.06161 | 110.25889 | 3845 ft | 155 kts | 80° |
| 2026-05-05 10:12 | 29.06429 | 110.27081 | 3626 ft | 154 kts | 81° |
| 2026-05-05 10:13 | 29.06696 | 110.28274 | 3424 ft | 154 kts | 79° |
| 2026-05-05 10:13 | 29.06963 | 110.29462 | 3206 ft | 154 kts | 82° |
| 2026-05-05 10:13 | 29.07224 | 110.30623 | 3001 ft | 151 kts | 80° |
| 2026-05-05 10:13 | 29.07485 | 110.31790 | 2798 ft | 154 kts | 82° |
| 2026-05-05 10:14 | 29.07752 | 110.32982 | 2596 ft | 151 kts | 83° |
| 2026-05-05 10:14 | 29.08008 | 110.34124 | 2391 ft | 151 kts | 82° |
| 2026-05-05 10:14 | 29.08269 | 110.35288 | 2201 ft | 150 kts | 82° |
| 2026-05-05 10:14 | 29.08525 | 110.36431 | 2002 ft | 148 kts | 78° |
| 2026-05-05 10:15 | 29.08781 | 110.37580 | 1797 ft | 146 kts | 77° |
| 2026-05-05 10:15 | 29.09047 | 110.38691 | 1567 ft | 146 kts | 74° |
| 2026-05-05 10:15 | 29.09304 | 110.39816 | 1262 ft | 145 kts | 81° |
| 2026-05-05 10:15 | 29.09545 | 110.40939 | 1137 ft | 145 kts | 78° |
| 2026-05-05 10:16 | 29.09782 | 110.42064 | 991 ft | 146 kts | 74° |
| 2026-05-05 10:16 | 29.10039 | 110.43182 | 757 ft | 145 kts | 77° |
| 2026-05-05 10:16 | 29.10256 | 110.44205 | 705 ft | 106 kts | 76° |
| 2026-05-05 10:16 | 29.10376 | 110.44709 | 693 ft | 43 kts | 76° |
| 2026-05-05 10:17 | 29.10449 | 110.44983 | 689 ft | 30 kts | 63° |
| 2026-05-05 10:17 | 29.10539 | 110.45123 | 688 ft | 14 kts | 47° |
| 2026-05-05 10:17 | 29.10605 | 110.45179 | 687 ft | 9 kts | 355° |
| 2026-05-05 10:17 | 29.10636 | 110.45132 | 686 ft | 7 kts | 273° |
| 2026-05-05 10:18 | 29.10624 | 110.45065 | 688 ft | 12 kts | 255° |
| 2026-05-05 10:18 | 29.10596 | 110.44945 | 690 ft | 19 kts | 255° |
| 2026-05-05 10:18 | 29.10567 | 110.44819 | 693 ft | 13 kts | 255° |
| 2026-05-05 10:18 | 29.10539 | 110.44720 | 694 ft | 13 kts | 254° |
| 2026-05-05 10:19 | 29.10516 | 110.44618 | 699 ft | 14 kts | 256° |
| 2026-05-05 10:19 | 29.10492 | 110.44508 | 699 ft | 15 kts | 255° |
| 2026-05-05 10:19 | 29.10466 | 110.44392 | 700 ft | 15 kts | 255° |
| 2026-05-05 10:19 | 29.10453 | 110.44302 | 705 ft | 8 kts | 296° |
| 2026-05-05 10:20 | 29.10493 | 110.44275 | 702 ft | 7 kts | 339° |
| 2026-05-05 10:20 | 29.10511 | 110.44235 | 705 ft | 5 kts | 266° |
| 2026-05-05 10:20 | 29.10504 | 110.44199 | 706 ft | 8 kts | 257° |
| 2026-05-05 10:20 | 29.10483 | 110.44105 | 702 ft | 11 kts | 255° |
| 2026-05-05 10:21 | 29.10498 | 110.44052 | 695 ft | 6 kts | 326° |
| 2026-05-05 10:21 | 29.10556 | 110.44034 | 700 ft | 12 kts | 345° |
| 2026-05-05 10:21 | 29.10609 | 110.44023 | 703 ft | 6 kts | 7° |
| 2026-05-05 10:21 | 29.10626 | 110.44062 | 702 ft | 6 kts | 75° |
| 2026-05-05 10:22 | 29.10630 | 110.44078 | 703 ft | 0 kts | 75° |
| 2026-05-05 10:22 | 29.10630 | 110.44079 | 703 ft | 0 kts | 75° |
| 2026-05-05 10:23 | 29.06232 | 110.26535 | 3723 ft | 2 kts | 53° |
| 2026-05-05 10:24 | 29.10371 | 110.44990 | 683 ft | 0 kts | 35° |